sensor_id;sensor_type;location;lat;lon;timestamp;P1;durP1;ratioP1;P2;durP2;ratioP2
36423;SDS011;22458;45.328;9.514;2022-12-05T00:00:06;13.15;;;9.70;;
36423;SDS011;22458;45.328;9.514;2022-12-05T00:02:32;13.05;;;10.63;;
36423;SDS011;22458;45.328;9.514;2022-12-05T00:04:59;15.07;;;11.00;;
36423;SDS011;22458;45.328;9.514;2022-12-05T00:07:24;13.93;;;10.45;;
36423;SDS011;22458;45.328;9.514;2022-12-05T00:09:50;12.20;;;9.85;;
36423;SDS011;22458;45.328;9.514;2022-12-05T00:12:16;15.18;;;10.20;;
36423;SDS011;22458;45.328;9.514;2022-12-05T00:14:42;14.05;;;10.50;;
36423;SDS011;22458;45.328;9.514;2022-12-05T00:17:07;12.68;;;9.95;;
36423;SDS011;22458;45.328;9.514;2022-12-05T00:19:33;14.32;;;10.95;;
36423;SDS011;22458;45.328;9.514;2022-12-05T00:21:59;13.98;;;10.55;;
36423;SDS011;22458;45.328;9.514;2022-12-05T00:24:24;14.98;;;11.07;;
36423;SDS011;22458;45.328;9.514;2022-12-05T00:26:50;14.35;;;10.50;;
36423;SDS011;22458;45.328;9.514;2022-12-05T00:29:16;17.38;;;11.43;;
36423;SDS011;22458;45.328;9.514;2022-12-05T00:31:42;12.85;;;10.23;;
36423;SDS011;22458;45.328;9.514;2022-12-05T00:34:08;15.65;;;11.18;;
36423;SDS011;22458;45.328;9.514;2022-12-05T00:36:34;16.80;;;11.32;;
36423;SDS011;22458;45.328;9.514;2022-12-05T00:39:02;13.95;;;10.73;;
36423;SDS011;22458;45.328;9.514;2022-12-05T00:41:30;14.90;;;10.93;;
36423;SDS011;22458;45.328;9.514;2022-12-05T00:43:57;16.50;;;11.98;;
36423;SDS011;22458;45.328;9.514;2022-12-05T00:46:25;15.00;;;11.35;;
36423;SDS011;22458;45.328;9.514;2022-12-05T00:48:53;16.05;;;12.05;;
36423;SDS011;22458;45.328;9.514;2022-12-05T00:51:20;15.93;;;11.80;;
36423;SDS011;22458;45.328;9.514;2022-12-05T00:53:48;16.38;;;12.30;;
36423;SDS011;22458;45.328;9.514;2022-12-05T00:56:17;16.38;;;11.68;;
36423;SDS011;22458;45.328;9.514;2022-12-05T00:58:44;18.67;;;12.93;;
36423;SDS011;22458;45.328;9.514;2022-12-05T01:01:17;17.48;;;12.32;;
36423;SDS011;22458;45.328;9.514;2022-12-05T01:03:46;18.63;;;12.52;;
36423;SDS011;22458;45.328;9.514;2022-12-05T01:06:13;17.52;;;11.65;;
36423;SDS011;22458;45.328;9.514;2022-12-05T01:08:40;16.75;;;12.32;;
36423;SDS011;22458;45.328;9.514;2022-12-05T01:11:06;16.38;;;12.00;;
36423;SDS011;22458;45.328;9.514;2022-12-05T01:13:34;14.68;;;11.05;;
36423;SDS011;22458;45.328;9.514;2022-12-05T01:16:00;13.95;;;9.95;;
36423;SDS011;22458;45.328;9.514;2022-12-05T01:18:26;17.33;;;11.07;;
36423;SDS011;22458;45.328;9.514;2022-12-05T01:20:52;14.45;;;10.32;;
36423;SDS011;22458;45.328;9.514;2022-12-05T01:23:18;13.63;;;10.00;;
36423;SDS011;22458;45.328;9.514;2022-12-05T01:25:46;14.07;;;10.45;;
36423;SDS011;22458;45.328;9.514;2022-12-05T01:28:14;14.68;;;10.82;;
36423;SDS011;22458;45.328;9.514;2022-12-05T01:30:40;14.80;;;10.57;;
36423;SDS011;22458;45.328;9.514;2022-12-05T01:33:08;15.02;;;10.73;;
36423;SDS011;22458;45.328;9.514;2022-12-05T01:35:35;14.88;;;10.93;;
36423;SDS011;22458;45.328;9.514;2022-12-05T01:38:02;14.15;;;10.40;;
36423;SDS011;22458;45.328;9.514;2022-12-05T01:40:29;13.77;;;10.52;;
36423;SDS011;22458;45.328;9.514;2022-12-05T01:42:55;11.65;;;9.70;;
36423;SDS011;22458;45.328;9.514;2022-12-05T01:45:31;12.18;;;9.75;;
36423;SDS011;22458;45.328;9.514;2022-12-05T01:48:01;12.57;;;10.00;;
36423;SDS011;22458;45.328;9.514;2022-12-05T01:50:29;13.85;;;10.40;;
36423;SDS011;22458;45.328;9.514;2022-12-05T01:52:54;13.02;;;10.15;;
36423;SDS011;22458;45.328;9.514;2022-12-05T01:55:20;14.05;;;10.45;;
36423;SDS011;22458;45.328;9.514;2022-12-05T01:57:46;12.65;;;9.70;;
36423;SDS011;22458;45.328;9.514;2022-12-05T02:00:14;14.82;;;11.02;;
36423;SDS011;22458;45.328;9.514;2022-12-05T02:02:44;12.77;;;10.48;;
36423;SDS011;22458;45.328;9.514;2022-12-05T02:05:19;14.23;;;11.10;;
36423;SDS011;22458;45.328;9.514;2022-12-05T02:07:47;13.23;;;10.15;;
36423;SDS011;22458;45.328;9.514;2022-12-05T02:10:13;14.23;;;10.05;;
36423;SDS011;22458;45.328;9.514;2022-12-05T02:12:39;13.65;;;10.57;;
36423;SDS011;22458;45.328;9.514;2022-12-05T02:18:12;13.07;;;9.85;;
36423;SDS011;22458;45.328;9.514;2022-12-05T02:23:59;11.52;;;9.02;;
36423;SDS011;22458;45.328;9.514;2022-12-05T02:34:48;10.85;;;8.75;;
36423;SDS011;22458;45.328;9.514;2022-12-05T02:40:04;11.35;;;9.35;;
36423;SDS011;22458;45.328;9.514;2022-12-05T02:42:47;9.45;;;7.55;;
36423;SDS011;22458;45.328;9.514;2022-12-05T02:45:18;10.25;;;8.27;;
36423;SDS011;22458;45.328;9.514;2022-12-05T02:47:48;10.15;;;7.68;;
36423;SDS011;22458;45.328;9.514;2022-12-05T02:50:20;8.23;;;6.80;;
36423;SDS011;22458;45.328;9.514;2022-12-05T02:52:49;9.35;;;6.53;;
36423;SDS011;22458;45.328;9.514;2022-12-05T02:55:17;8.70;;;7.80;;
36423;SDS011;22458;45.328;9.514;2022-12-05T02:57:45;8.93;;;6.97;;
36423;SDS011;22458;45.328;9.514;2022-12-05T03:00:16;9.73;;;7.38;;
36423;SDS011;22458;45.328;9.514;2022-12-05T03:02:42;8.38;;;7.20;;
36423;SDS011;22458;45.328;9.514;2022-12-05T03:05:24;7.60;;;6.65;;
36423;SDS011;22458;45.328;9.514;2022-12-05T03:08:03;8.82;;;7.15;;
36423;SDS011;22458;45.328;9.514;2022-12-05T03:10:32;7.65;;;6.20;;
36423;SDS011;22458;45.328;9.514;2022-12-05T03:13:03;7.57;;;6.18;;
36423;SDS011;22458;45.328;9.514;2022-12-05T03:15:34;7.50;;;6.15;;
36423;SDS011;22458;45.328;9.514;2022-12-05T03:18:07;8.13;;;5.85;;
36423;SDS011;22458;45.328;9.514;2022-12-05T03:20:57;8.80;;;7.05;;
36423;SDS011;22458;45.328;9.514;2022-12-05T03:23:29;8.32;;;6.82;;
36423;SDS011;22458;45.328;9.514;2022-12-05T03:26:10;10.05;;;7.13;;
36423;SDS011;22458;45.328;9.514;2022-12-05T03:31:38;9.43;;;7.40;;
36423;SDS011;22458;45.328;9.514;2022-12-05T03:34:11;10.27;;;7.72;;
36423;SDS011;22458;45.328;9.514;2022-12-05T03:36:44;9.45;;;7.80;;
36423;SDS011;22458;45.328;9.514;2022-12-05T03:39:20;8.95;;;7.32;;
36423;SDS011;22458;45.328;9.514;2022-12-05T03:41:52;8.02;;;6.80;;
36423;SDS011;22458;45.328;9.514;2022-12-05T03:44:47;8.63;;;6.95;;
36423;SDS011;22458;45.328;9.514;2022-12-05T03:47:25;7.15;;;5.40;;
36423;SDS011;22458;45.328;9.514;2022-12-05T03:50:20;8.57;;;7.05;;
36423;SDS011;22458;45.328;9.514;2022-12-05T03:53:04;8.82;;;6.80;;
36423;SDS011;22458;45.328;9.514;2022-12-05T03:55:34;7.25;;;6.35;;
36423;SDS011;22458;45.328;9.514;2022-12-05T03:58:07;8.27;;;6.68;;
36423;SDS011;22458;45.328;9.514;2022-12-05T04:00:39;8.48;;;6.57;;
36423;SDS011;22458;45.328;9.514;2022-12-05T04:03:16;6.47;;;5.53;;
36423;SDS011;22458;45.328;9.514;2022-12-05T04:05:55;6.32;;;5.30;;
36423;SDS011;22458;45.328;9.514;2022-12-05T04:08:29;6.65;;;5.85;;
36423;SDS011;22458;45.328;9.514;2022-12-05T04:11:00;7.32;;;5.60;;
36423;SDS011;22458;45.328;9.514;2022-12-05T04:13:38;8.82;;;6.88;;
36423;SDS011;22458;45.328;9.514;2022-12-05T04:16:53;8.52;;;6.20;;
36423;SDS011;22458;45.328;9.514;2022-12-05T04:22:15;7.35;;;5.45;;
36423;SDS011;22458;45.328;9.514;2022-12-05T04:24:40;8.07;;;6.22;;
36423;SDS011;22458;45.328;9.514;2022-12-05T04:27:30;6.32;;;5.22;;
36423;SDS011;22458;45.328;9.514;2022-12-05T04:30:03;7.15;;;5.50;;
36423;SDS011;22458;45.328;9.514;2022-12-05T04:32:32;7.00;;;6.20;;
36423;SDS011;22458;45.328;9.514;2022-12-05T04:35:06;8.57;;;6.30;;
36423;SDS011;22458;45.328;9.514;2022-12-05T04:37:38;7.47;;;5.47;;
36423;SDS011;22458;45.328;9.514;2022-12-05T04:40:10;7.50;;;5.60;;
36423;SDS011;22458;45.328;9.514;2022-12-05T04:42:41;9.25;;;6.13;;
36423;SDS011;22458;45.328;9.514;2022-12-05T04:45:09;8.93;;;6.25;;
36423;SDS011;22458;45.328;9.514;2022-12-05T04:47:41;8.95;;;6.10;;
36423;SDS011;22458;45.328;9.514;2022-12-05T04:50:12;8.13;;;6.00;;
36423;SDS011;22458;45.328;9.514;2022-12-05T04:52:39;8.40;;;6.68;;
36423;SDS011;22458;45.328;9.514;2022-12-05T04:55:17;9.25;;;6.82;;
36423;SDS011;22458;45.328;9.514;2022-12-05T04:57:54;9.05;;;6.97;;
36423;SDS011;22458;45.328;9.514;2022-12-05T05:00:26;9.73;;;6.75;;
36423;SDS011;22458;45.328;9.514;2022-12-05T05:02:59;9.02;;;6.80;;
36423;SDS011;22458;45.328;9.514;2022-12-05T05:05:31;8.63;;;5.78;;
36423;SDS011;22458;45.328;9.514;2022-12-05T05:07:59;7.30;;;6.30;;
36423;SDS011;22458;45.328;9.514;2022-12-05T05:10:36;8.27;;;6.25;;
36423;SDS011;22458;45.328;9.514;2022-12-05T05:13:05;10.18;;;7.35;;
36423;SDS011;22458;45.328;9.514;2022-12-05T05:15:31;7.63;;;6.47;;
36423;SDS011;22458;45.328;9.514;2022-12-05T05:17:57;7.63;;;5.88;;
36423;SDS011;22458;45.328;9.514;2022-12-05T05:20:22;9.05;;;6.75;;
36423;SDS011;22458;45.328;9.514;2022-12-05T05:22:49;7.88;;;5.85;;
36423;SDS011;22458;45.328;9.514;2022-12-05T05:25:15;8.73;;;6.72;;
36423;SDS011;22458;45.328;9.514;2022-12-05T05:27:41;8.45;;;7.07;;
36423;SDS011;22458;45.328;9.514;2022-12-05T05:30:07;11.20;;;8.15;;
36423;SDS011;22458;45.328;9.514;2022-12-05T05:32:33;9.63;;;7.28;;
36423;SDS011;22458;45.328;9.514;2022-12-05T05:34:59;9.07;;;7.70;;
36423;SDS011;22458;45.328;9.514;2022-12-05T05:37:25;8.25;;;7.03;;
36423;SDS011;22458;45.328;9.514;2022-12-05T05:39:51;10.60;;;7.65;;
36423;SDS011;22458;45.328;9.514;2022-12-05T05:42:16;9.23;;;7.00;;
36423;SDS011;22458;45.328;9.514;2022-12-05T05:44:42;9.13;;;7.40;;
36423;SDS011;22458;45.328;9.514;2022-12-05T05:47:08;10.00;;;8.10;;
36423;SDS011;22458;45.328;9.514;2022-12-05T05:49:34;10.73;;;7.97;;
36423;SDS011;22458;45.328;9.514;2022-12-05T05:51:59;10.07;;;8.43;;
36423;SDS011;22458;45.328;9.514;2022-12-05T05:54:25;10.30;;;8.20;;
36423;SDS011;22458;45.328;9.514;2022-12-05T05:56:51;11.68;;;8.10;;
36423;SDS011;22458;45.328;9.514;2022-12-05T05:59:16;13.55;;;9.75;;
36423;SDS011;22458;45.328;9.514;2022-12-05T06:01:42;11.90;;;8.85;;
36423;SDS011;22458;45.328;9.514;2022-12-05T06:04:08;10.50;;;8.27;;
36423;SDS011;22458;45.328;9.514;2022-12-05T06:06:33;11.88;;;9.68;;
36423;SDS011;22458;45.328;9.514;2022-12-05T06:08:59;12.35;;;9.27;;
36423;SDS011;22458;45.328;9.514;2022-12-05T06:11:25;12.70;;;9.93;;
36423;SDS011;22458;45.328;9.514;2022-12-05T06:13:53;12.70;;;10.25;;
36423;SDS011;22458;45.328;9.514;2022-12-05T06:16:20;13.07;;;10.15;;
36423;SDS011;22458;45.328;9.514;2022-12-05T06:18:45;12.68;;;9.98;;
36423;SDS011;22458;45.328;9.514;2022-12-05T06:21:11;12.95;;;9.98;;
36423;SDS011;22458;45.328;9.514;2022-12-05T06:23:37;11.90;;;10.10;;
36423;SDS011;22458;45.328;9.514;2022-12-05T06:26:03;15.30;;;10.50;;
36423;SDS011;22458;45.328;9.514;2022-12-05T06:28:30;13.50;;;10.20;;
36423;SDS011;22458;45.328;9.514;2022-12-05T06:30:56;12.90;;;10.48;;
36423;SDS011;22458;45.328;9.514;2022-12-05T06:33:22;12.13;;;9.75;;
36423;SDS011;22458;45.328;9.514;2022-12-05T06:35:48;12.15;;;8.95;;
36423;SDS011;22458;45.328;9.514;2022-12-05T06:38:25;9.32;;;7.57;;
36423;SDS011;22458;45.328;9.514;2022-12-05T06:40:50;9.30;;;7.45;;
36423;SDS011;22458;45.328;9.514;2022-12-05T06:43:16;9.68;;;7.60;;
36423;SDS011;22458;45.328;9.514;2022-12-05T06:45:42;11.90;;;8.02;;
36423;SDS011;22458;45.328;9.514;2022-12-05T06:48:07;8.32;;;6.63;;
36423;SDS011;22458;45.328;9.514;2022-12-05T06:50:33;9.10;;;6.78;;
36423;SDS011;22458;45.328;9.514;2022-12-05T06:52:59;8.63;;;7.15;;
36423;SDS011;22458;45.328;9.514;2022-12-05T06:55:24;8.85;;;6.63;;
36423;SDS011;22458;45.328;9.514;2022-12-05T06:57:50;8.38;;;6.57;;
36423;SDS011;22458;45.328;9.514;2022-12-05T07:00:16;8.88;;;6.78;;
36423;SDS011;22458;45.328;9.514;2022-12-05T07:03:00;8.10;;;6.40;;
36423;SDS011;22458;45.328;9.514;2022-12-05T07:05:26;8.65;;;6.65;;
36423;SDS011;22458;45.328;9.514;2022-12-05T07:07:51;11.15;;;6.93;;
36423;SDS011;22458;45.328;9.514;2022-12-05T07:10:17;8.38;;;6.55;;
36423;SDS011;22458;45.328;9.514;2022-12-05T07:12:43;9.23;;;7.15;;
36423;SDS011;22458;45.328;9.514;2022-12-05T07:15:09;9.77;;;7.15;;
36423;SDS011;22458;45.328;9.514;2022-12-05T07:17:36;13.05;;;7.50;;
36423;SDS011;22458;45.328;9.514;2022-12-05T07:20:03;8.88;;;7.25;;
36423;SDS011;22458;45.328;9.514;2022-12-05T07:22:30;10.00;;;7.82;;
36423;SDS011;22458;45.328;9.514;2022-12-05T07:24:56;11.13;;;7.95;;
36423;SDS011;22458;45.328;9.514;2022-12-05T07:27:21;11.88;;;9.07;;
36423;SDS011;22458;45.328;9.514;2022-12-05T07:29:47;8.90;;;7.50;;
36423;SDS011;22458;45.328;9.514;2022-12-05T07:32:13;10.90;;;7.78;;
36423;SDS011;22458;45.328;9.514;2022-12-05T07:34:38;10.82;;;7.85;;
36423;SDS011;22458;45.328;9.514;2022-12-05T07:37:04;9.73;;;7.63;;
36423;SDS011;22458;45.328;9.514;2022-12-05T07:39:30;9.30;;;7.13;;
36423;SDS011;22458;45.328;9.514;2022-12-05T07:41:56;10.00;;;7.78;;
36423;SDS011;22458;45.328;9.514;2022-12-05T07:44:21;9.77;;;7.75;;
36423;SDS011;22458;45.328;9.514;2022-12-05T07:46:47;10.43;;;7.93;;
36423;SDS011;22458;45.328;9.514;2022-12-05T07:49:13;12.45;;;8.32;;
36423;SDS011;22458;45.328;9.514;2022-12-05T07:51:40;12.25;;;8.15;;
36423;SDS011;22458;45.328;9.514;2022-12-05T07:54:05;12.23;;;9.43;;
36423;SDS011;22458;45.328;9.514;2022-12-05T07:56:31;12.75;;;8.70;;
36423;SDS011;22458;45.328;9.514;2022-12-05T07:58:57;13.57;;;9.23;;
36423;SDS011;22458;45.328;9.514;2022-12-05T08:01:24;13.68;;;8.93;;
36423;SDS011;22458;45.328;9.514;2022-12-05T08:03:52;12.80;;;8.38;;
36423;SDS011;22458;45.328;9.514;2022-12-05T08:06:20;11.98;;;8.52;;
36423;SDS011;22458;45.328;9.514;2022-12-05T08:08:48;13.93;;;8.90;;
36423;SDS011;22458;45.328;9.514;2022-12-05T08:11:16;12.38;;;8.57;;
36423;SDS011;22458;45.328;9.514;2022-12-05T08:13:46;13.82;;;8.55;;
36423;SDS011;22458;45.328;9.514;2022-12-05T08:16:13;14.10;;;9.63;;
36423;SDS011;22458;45.328;9.514;2022-12-05T08:18:41;13.57;;;9.18;;
36423;SDS011;22458;45.328;9.514;2022-12-05T08:21:09;14.77;;;10.68;;
36423;SDS011;22458;45.328;9.514;2022-12-05T08:23:37;13.20;;;9.23;;
36423;SDS011;22458;45.328;9.514;2022-12-05T08:26:04;14.13;;;9.35;;
36423;SDS011;22458;45.328;9.514;2022-12-05T08:28:36;13.95;;;9.02;;
36423;SDS011;22458;45.328;9.514;2022-12-05T08:31:15;15.45;;;11.23;;
36423;SDS011;22458;45.328;9.514;2022-12-05T08:33:42;13.60;;;9.38;;
36423;SDS011;22458;45.328;9.514;2022-12-05T08:36:09;13.85;;;9.73;;
36423;SDS011;22458;45.328;9.514;2022-12-05T08:38:36;13.23;;;8.40;;
36423;SDS011;22458;45.328;9.514;2022-12-05T08:41:03;16.38;;;9.82;;
36423;SDS011;22458;45.328;9.514;2022-12-05T08:43:30;16.10;;;9.65;;
36423;SDS011;22458;45.328;9.514;2022-12-05T08:45:56;14.05;;;9.60;;
36423;SDS011;22458;45.328;9.514;2022-12-05T08:48:23;15.98;;;9.00;;
36423;SDS011;22458;45.328;9.514;2022-12-05T08:50:49;14.88;;;8.88;;
36423;SDS011;22458;45.328;9.514;2022-12-05T08:53:14;14.93;;;9.07;;
36423;SDS011;22458;45.328;9.514;2022-12-05T08:55:41;15.95;;;8.77;;
36423;SDS011;22458;45.328;9.514;2022-12-05T08:58:07;14.63;;;10.20;;
36423;SDS011;22458;45.328;9.514;2022-12-05T09:00:33;15.57;;;9.52;;
36423;SDS011;22458;45.328;9.514;2022-12-05T09:02:58;15.18;;;9.00;;
36423;SDS011;22458;45.328;9.514;2022-12-05T09:05:24;14.55;;;9.18;;
36423;SDS011;22458;45.328;9.514;2022-12-05T09:07:50;12.63;;;8.52;;
36423;SDS011;22458;45.328;9.514;2022-12-05T09:10:16;14.90;;;8.98;;
36423;SDS011;22458;45.328;9.514;2022-12-05T09:12:43;15.27;;;9.18;;
36423;SDS011;22458;45.328;9.514;2022-12-05T09:15:09;16.40;;;9.00;;
36423;SDS011;22458;45.328;9.514;2022-12-05T09:17:36;18.02;;;10.75;;
36423;SDS011;22458;45.328;9.514;2022-12-05T09:20:02;13.82;;;8.82;;
36423;SDS011;22458;45.328;9.514;2022-12-05T09:22:29;15.05;;;9.15;;
36423;SDS011;22458;45.328;9.514;2022-12-05T09:24:55;15.85;;;9.18;;
36423;SDS011;22458;45.328;9.514;2022-12-05T09:27:21;12.93;;;8.30;;
36423;SDS011;22458;45.328;9.514;2022-12-05T09:29:47;14.63;;;9.27;;
36423;SDS011;22458;45.328;9.514;2022-12-05T09:32:13;18.10;;;10.88;;
36423;SDS011;22458;45.328;9.514;2022-12-05T09:34:38;15.57;;;9.80;;
36423;SDS011;22458;45.328;9.514;2022-12-05T09:37:04;15.68;;;9.82;;
36423;SDS011;22458;45.328;9.514;2022-12-05T09:39:31;19.13;;;10.95;;
36423;SDS011;22458;45.328;9.514;2022-12-05T09:50:16;15.68;;;9.55;;
36423;SDS011;22458;45.328;9.514;2022-12-05T09:52:57;15.05;;;10.02;;
36423;SDS011;22458;45.328;9.514;2022-12-05T09:55:54;14.43;;;8.68;;
36423;SDS011;22458;45.328;9.514;2022-12-05T10:06:43;12.30;;;7.53;;
36423;SDS011;22458;45.328;9.514;2022-12-05T10:14:51;12.55;;;7.53;;
36423;SDS011;22458;45.328;9.514;2022-12-05T10:17:36;12.95;;;7.32;;
36423;SDS011;22458;45.328;9.514;2022-12-05T10:20:17;13.15;;;7.95;;
36423;SDS011;22458;45.328;9.514;2022-12-05T10:25:48;12.85;;;7.82;;
36423;SDS011;22458;45.328;9.514;2022-12-05T10:29:06;12.98;;;7.78;;
36423;SDS011;22458;45.328;9.514;2022-12-05T10:31:13;15.27;;;7.80;;
36423;SDS011;22458;45.328;9.514;2022-12-05T10:33:44;11.02;;;7.38;;
36423;SDS011;22458;45.328;9.514;2022-12-05T10:36:13;13.02;;;7.72;;
36423;SDS011;22458;45.328;9.514;2022-12-05T10:38:40;13.27;;;8.20;;
36423;SDS011;22458;45.328;9.514;2022-12-05T10:41:07;13.88;;;7.50;;
36423;SDS011;22458;45.328;9.514;2022-12-05T10:43:36;13.57;;;7.00;;
36423;SDS011;22458;45.328;9.514;2022-12-05T10:48:34;14.63;;;8.20;;
36423;SDS011;22458;45.328;9.514;2022-12-05T10:51:02;14.43;;;8.75;;
36423;SDS011;22458;45.328;9.514;2022-12-05T10:53:37;14.25;;;8.27;;
36423;SDS011;22458;45.328;9.514;2022-12-05T10:59:07;13.57;;;7.57;;
36423;SDS011;22458;45.328;9.514;2022-12-05T11:01:46;12.98;;;7.15;;
36423;SDS011;22458;45.328;9.514;2022-12-05T11:04:21;15.95;;;8.30;;
36423;SDS011;22458;45.328;9.514;2022-12-05T11:06:54;16.30;;;8.55;;
36423;SDS011;22458;45.328;9.514;2022-12-05T11:09:25;13.52;;;7.50;;
36423;SDS011;22458;45.328;9.514;2022-12-05T11:14:52;13.68;;;8.10;;
36423;SDS011;22458;45.328;9.514;2022-12-05T11:17:35;13.93;;;7.13;;
36423;SDS011;22458;45.328;9.514;2022-12-05T11:22:53;17.23;;;8.65;;
36423;SDS011;22458;45.328;9.514;2022-12-05T11:25:24;15.98;;;8.05;;
36423;SDS011;22458;45.328;9.514;2022-12-05T11:27:58;14.80;;;7.07;;
36423;SDS011;22458;45.328;9.514;2022-12-05T11:33:26;13.45;;;7.13;;
36423;SDS011;22458;45.328;9.514;2022-12-05T11:35:54;13.30;;;7.97;;
36423;SDS011;22458;45.328;9.514;2022-12-05T11:38:27;18.33;;;8.40;;
36423;SDS011;22458;45.328;9.514;2022-12-05T11:49:31;13.85;;;8.07;;
36423;SDS011;22458;45.328;9.514;2022-12-05T12:08:37;14.88;;;7.32;;
36423;SDS011;22458;45.328;9.514;2022-12-05T12:11:35;11.65;;;6.53;;
36423;SDS011;22458;45.328;9.514;2022-12-05T12:22:25;13.18;;;6.85;;
36423;SDS011;22458;45.328;9.514;2022-12-05T12:36:01;15.23;;;7.50;;
36423;SDS011;22458;45.328;9.514;2022-12-05T12:38:54;14.25;;;7.35;;
36423;SDS011;22458;45.328;9.514;2022-12-05T12:52:22;18.08;;;7.88;;
36423;SDS011;22458;45.328;9.514;2022-12-05T13:03:01;14.80;;;7.53;;
36423;SDS011;22458;45.328;9.514;2022-12-05T13:08:01;15.95;;;8.60;;
36423;SDS011;22458;45.328;9.514;2022-12-05T13:10:37;14.20;;;7.75;;
36423;SDS011;22458;45.328;9.514;2022-12-05T13:13:06;16.02;;;7.90;;
36423;SDS011;22458;45.328;9.514;2022-12-05T13:15:39;13.57;;;7.95;;
36423;SDS011;22458;45.328;9.514;2022-12-05T13:18:19;18.65;;;8.48;;
36423;SDS011;22458;45.328;9.514;2022-12-05T13:20:48;14.27;;;9.20;;
36423;SDS011;22458;45.328;9.514;2022-12-05T13:23:19;16.30;;;8.88;;
36423;SDS011;22458;45.328;9.514;2022-12-05T13:25:47;13.57;;;8.02;;
36423;SDS011;22458;45.328;9.514;2022-12-05T13:28:28;15.95;;;8.52;;
36423;SDS011;22458;45.328;9.514;2022-12-05T13:31:06;17.27;;;9.45;;
36423;SDS011;22458;45.328;9.514;2022-12-05T13:33:34;16.50;;;8.73;;
36423;SDS011;22458;45.328;9.514;2022-12-05T13:36:25;15.75;;;7.78;;
36423;SDS011;22458;45.328;9.514;2022-12-05T13:41:56;15.63;;;9.10;;
36423;SDS011;22458;45.328;9.514;2022-12-05T13:53:04;14.82;;;8.50;;
36423;SDS011;22458;45.328;9.514;2022-12-05T13:55:57;18.42;;;9.75;;
36423;SDS011;22458;45.328;9.514;2022-12-05T14:00:49;18.75;;;8.85;;
36423;SDS011;22458;45.328;9.514;2022-12-05T14:03:16;17.50;;;9.80;;
36423;SDS011;22458;45.328;9.514;2022-12-05T14:05:46;21.25;;;10.73;;
36423;SDS011;22458;45.328;9.514;2022-12-05T14:15:48;18.33;;;9.98;;
36423;SDS011;22458;45.328;9.514;2022-12-05T14:33:00;20.30;;;10.07;;
36423;SDS011;22458;45.328;9.514;2022-12-05T14:38:33;19.48;;;11.13;;
36423;SDS011;22458;45.328;9.514;2022-12-05T14:44:13;17.67;;;9.15;;
36423;SDS011;22458;45.328;9.514;2022-12-05T14:46:43;17.70;;;8.90;;
36423;SDS011;22458;45.328;9.514;2022-12-05T14:51:58;15.98;;;9.52;;
36423;SDS011;22458;45.328;9.514;2022-12-05T14:54:24;16.08;;;9.52;;
36423;SDS011;22458;45.328;9.514;2022-12-05T14:56:52;16.35;;;9.38;;
36423;SDS011;22458;45.328;9.514;2022-12-05T15:02:41;20.08;;;10.70;;
36423;SDS011;22458;45.328;9.514;2022-12-05T15:07:48;28.85;;;22.27;;
36423;SDS011;22458;45.328;9.514;2022-12-05T15:10:15;18.83;;;11.88;;
36423;SDS011;22458;45.328;9.514;2022-12-05T15:18:52;16.48;;;9.10;;
36423;SDS011;22458;45.328;9.514;2022-12-05T15:23:56;16.45;;;9.27;;
36423;SDS011;22458;45.328;9.514;2022-12-05T15:29:22;16.85;;;8.90;;
36423;SDS011;22458;45.328;9.514;2022-12-05T15:31:58;16.52;;;8.60;;
36423;SDS011;22458;45.328;9.514;2022-12-05T15:40:09;16.00;;;8.47;;
36423;SDS011;22458;45.328;9.514;2022-12-05T15:42:46;16.85;;;9.18;;
36423;SDS011;22458;45.328;9.514;2022-12-05T15:45:23;14.38;;;8.95;;
36423;SDS011;22458;45.328;9.514;2022-12-05T15:50:38;12.73;;;8.73;;
36423;SDS011;22458;45.328;9.514;2022-12-05T15:55:45;14.48;;;8.88;;
36423;SDS011;22458;45.328;9.514;2022-12-05T16:03:28;12.02;;;7.22;;
36423;SDS011;22458;45.328;9.514;2022-12-05T16:06:12;12.95;;;8.05;;
36423;SDS011;22458;45.328;9.514;2022-12-05T16:08:49;14.95;;;7.40;;
36423;SDS011;22458;45.328;9.514;2022-12-05T16:11:16;14.23;;;8.13;;
36423;SDS011;22458;45.328;9.514;2022-12-05T16:13:44;13.25;;;7.32;;
36423;SDS011;22458;45.328;9.514;2022-12-05T16:16:32;11.60;;;7.95;;
36423;SDS011;22458;45.328;9.514;2022-12-05T16:19:05;12.50;;;7.50;;
36423;SDS011;22458;45.328;9.514;2022-12-05T16:21:46;10.98;;;7.13;;
36423;SDS011;22458;45.328;9.514;2022-12-05T16:24:38;11.40;;;7.72;;
36423;SDS011;22458;45.328;9.514;2022-12-05T16:27:12;14.63;;;8.27;;
36423;SDS011;22458;45.328;9.514;2022-12-05T16:29:38;12.48;;;8.20;;
36423;SDS011;22458;45.328;9.514;2022-12-05T16:32:11;14.80;;;8.73;;
36423;SDS011;22458;45.328;9.514;2022-12-05T16:34:44;13.40;;;8.38;;
36423;SDS011;22458;45.328;9.514;2022-12-05T16:37:16;15.27;;;8.75;;
36423;SDS011;22458;45.328;9.514;2022-12-05T16:39:45;13.25;;;8.35;;
36423;SDS011;22458;45.328;9.514;2022-12-05T16:42:21;13.50;;;8.32;;
36423;SDS011;22458;45.328;9.514;2022-12-05T16:44:53;11.30;;;7.53;;
36423;SDS011;22458;45.328;9.514;2022-12-05T16:50:26;13.55;;;8.95;;
36423;SDS011;22458;45.328;9.514;2022-12-05T16:53:27;12.00;;;8.50;;
36423;SDS011;22458;45.328;9.514;2022-12-05T16:55:51;15.10;;;9.23;;
36423;SDS011;22458;45.328;9.514;2022-12-05T16:58:19;13.63;;;9.38;;
36423;SDS011;22458;45.328;9.514;2022-12-05T17:00:47;14.65;;;9.57;;
36423;SDS011;22458;45.328;9.514;2022-12-05T17:03:13;13.93;;;9.02;;
36423;SDS011;22458;45.328;9.514;2022-12-05T17:05:39;13.30;;;8.43;;
36423;SDS011;22458;45.328;9.514;2022-12-05T17:08:05;13.00;;;8.70;;
36423;SDS011;22458;45.328;9.514;2022-12-05T17:10:31;16.17;;;11.07;;
36423;SDS011;22458;45.328;9.514;2022-12-05T17:12:57;18.88;;;9.95;;
36423;SDS011;22458;45.328;9.514;2022-12-05T17:15:25;15.98;;;9.35;;
36423;SDS011;22458;45.328;9.514;2022-12-05T17:17:50;15.63;;;10.20;;
36423;SDS011;22458;45.328;9.514;2022-12-05T17:20:16;14.85;;;8.68;;
36423;SDS011;22458;45.328;9.514;2022-12-05T17:22:42;13.07;;;9.20;;
36423;SDS011;22458;45.328;9.514;2022-12-05T17:25:19;17.20;;;10.80;;
36423;SDS011;22458;45.328;9.514;2022-12-05T17:27:55;18.15;;;10.25;;
36423;SDS011;22458;45.328;9.514;2022-12-05T17:30:23;18.85;;;10.32;;
36423;SDS011;22458;45.328;9.514;2022-12-05T17:32:49;15.25;;;10.88;;
36423;SDS011;22458;45.328;9.514;2022-12-05T17:35:15;18.15;;;12.25;;
36423;SDS011;22458;45.328;9.514;2022-12-05T17:37:42;18.52;;;11.93;;
36423;SDS011;22458;45.328;9.514;2022-12-05T17:40:08;21.05;;;14.27;;
36423;SDS011;22458;45.328;9.514;2022-12-05T17:42:34;16.17;;;11.70;;
36423;SDS011;22458;45.328;9.514;2022-12-05T17:45:00;16.88;;;11.57;;
36423;SDS011;22458;45.328;9.514;2022-12-05T17:47:26;15.73;;;11.13;;
36423;SDS011;22458;45.328;9.514;2022-12-05T17:49:52;16.60;;;10.38;;
36423;SDS011;22458;45.328;9.514;2022-12-05T17:52:17;16.23;;;11.15;;
36423;SDS011;22458;45.328;9.514;2022-12-05T17:54:43;15.45;;;10.10;;
36423;SDS011;22458;45.328;9.514;2022-12-05T17:57:09;14.48;;;9.77;;
36423;SDS011;22458;45.328;9.514;2022-12-05T17:59:35;16.38;;;10.88;;
36423;SDS011;22458;45.328;9.514;2022-12-05T18:02:02;18.00;;;10.98;;
36423;SDS011;22458;45.328;9.514;2022-12-05T18:04:28;17.73;;;10.98;;
36423;SDS011;22458;45.328;9.514;2022-12-05T18:06:53;18.27;;;10.93;;
36423;SDS011;22458;45.328;9.514;2022-12-05T18:09:19;15.32;;;10.70;;
36423;SDS011;22458;45.328;9.514;2022-12-05T18:11:45;16.25;;;11.00;;
36423;SDS011;22458;45.328;9.514;2022-12-05T18:14:11;18.13;;;11.52;;
36423;SDS011;22458;45.328;9.514;2022-12-05T18:16:36;18.42;;;10.98;;
36423;SDS011;22458;45.328;9.514;2022-12-05T18:19:02;15.57;;;10.55;;